Time,TemperatureF,DewpointF,PressureIn,WindDirection,WindDirectionDegrees,WindSpeedMPH,WindSpeedGustMPH,Humidity,HourlyPrecipIn,Conditions,Clouds,dailyrainin,SolarRadiationWatts/m^2,SoftwareType,DateUTC
2013-08-12 00:01:00,68.0,43.0,-100.00,ENE,76,2.0,7.0,40,0.00,,,0.00,0.000000,,2013-08-12 06:01:00,
2013-08-12 00:11:00,68.0,43.0,-100.00,ENE,76,2.0,7.0,40,0.00,,,0.00,0.000000,,2013-08-12 06:11:00,
2013-08-12 00:42:00,69.0,48.0,-100.00,East,86,4.0,14.0,47,0.00,,,0.00,0.000000,,2013-08-12 06:42:00,
2013-08-12 00:52:00,69.0,48.0,-100.00,East,86,4.0,14.0,47,0.00,,,0.00,0.000000,,2013-08-12 06:52:00,
2013-08-12 01:01:00,69.0,48.0,-100.00,East,86,4.0,14.0,47,0.00,,,0.00,0.000000,,2013-08-12 07:01:00,
2013-08-12 01:12:00,69.0,48.0,-100.00,East,86,4.0,14.0,47,0.00,,,0.00,0.000000,,2013-08-12 07:12:00,
2013-08-12 02:43:00,64.0,54.0,-100.00,SW,223,6.0,13.0,69,-99.99,,,0.01,0.000000,,2013-08-12 08:43:00,
2013-08-12 02:53:00,64.0,54.0,-100.00,SW,223,6.0,13.0,69,-99.99,,,0.01,0.000000,,2013-08-12 08:53:00,
2013-08-12 03:02:00,64.0,54.0,-100.00,SW,223,6.0,13.0,69,-99.99,,,0.01,0.000000,,2013-08-12 09:02:00,
2013-08-12 03:11:00,64.0,54.0,-100.00,SW,223,6.0,13.0,69,-99.99,,,0.01,0.000000,,2013-08-12 09:11:00,
2013-08-12 03:43:00,64.0,45.0,-100.00,North,349,5.0,19.0,50,0.00,,,0.01,0.000000,,2013-08-12 09:43:00,
2013-08-12 03:53:00,64.0,45.0,-100.00,North,349,5.0,19.0,50,0.00,,,0.01,0.000000,,2013-08-12 09:53:00,
2013-08-12 04:01:00,64.0,45.0,-100.00,North,349,5.0,19.0,50,0.00,,,0.01,0.000000,,2013-08-12 10:01:00,
2013-08-12 04:11:00,64.0,45.0,-100.00,North,349,5.0,19.0,50,0.00,,,0.01,0.000000,,2013-08-12 10:11:00,
2013-08-12 04:43:00,64.0,45.0,-100.00,NW,319,2.0,14.0,50,0.00,,,0.01,0.000000,,2013-08-12 10:43:00,
2013-08-12 04:52:00,64.0,45.0,-100.00,NW,319,2.0,14.0,50,0.00,,,0.01,0.000000,,2013-08-12 10:52:00,
2013-08-12 05:02:00,64.0,45.0,-100.00,NW,319,2.0,14.0,50,0.00,,,0.01,0.000000,,2013-08-12 11:02:00,
2013-08-12 05:12:00,64.0,45.0,-100.00,NW,319,2.0,14.0,50,0.00,,,0.01,0.000000,,2013-08-12 11:12:00,
2013-08-12 05:42:00,62.0,47.0,-100.00,South,175,2.0,8.0,59,0.00,,,0.01,0.000000,,2013-08-12 11:42:00,
2013-08-12 05:53:00,62.0,47.0,-100.00,South,175,2.0,8.0,59,0.00,,,0.01,0.000000,,2013-08-12 11:53:00,
2013-08-12 06:02:00,62.0,47.0,-100.00,South,175,2.0,8.0,59,0.00,,,0.01,0.000000,,2013-08-12 12:02:00,
2013-08-12 06:11:00,62.0,47.0,-100.00,South,175,2.0,8.0,59,0.00,,,0.01,0.000000,,2013-08-12 12:11:00,
2013-08-12 06:43:00,54.0,47.0,-100.00,NNW,346,2.0,4.0,78,0.00,,,0.01,0.000000,,2013-08-12 12:43:00,
2013-08-12 06:52:00,54.0,47.0,-100.00,NNW,346,2.0,4.0,78,0.00,,,0.01,0.000000,,2013-08-12 12:52:00,
2013-08-12 07:01:00,54.0,47.0,-100.00,NNW,346,2.0,4.0,78,0.00,,,0.01,0.000000,,2013-08-12 13:01:00,
2013-08-12 07:11:00,54.0,47.0,-100.00,NNW,346,2.0,4.0,78,0.00,,,0.01,0.000000,,2013-08-12 13:11:00,
2013-08-12 07:43:00,51.0,48.0,-100.00,North,8,2.0,5.0,88,0.00,,,0.01,8.000000,,2013-08-12 13:43:00,
2013-08-12 07:53:00,51.0,48.0,-100.00,North,8,2.0,5.0,88,0.00,,,0.01,8.000000,,2013-08-12 13:53:00,
2013-08-12 08:01:00,51.0,48.0,-100.00,North,8,2.0,5.0,88,0.00,,,0.01,8.000000,,2013-08-12 14:01:00,
2013-08-12 08:11:00,51.0,48.0,-100.00,North,8,2.0,5.0,88,0.00,,,0.01,8.000000,,2013-08-12 14:11:00,
2013-08-12 08:42:00,56.0,51.0,-100.00,NW,315,2.0,4.0,84,0.00,,,0.01,91.000000,,2013-08-12 14:42:00,
2013-08-12 08:52:00,56.0,51.0,-100.00,NW,315,2.0,4.0,84,0.00,,,0.01,91.000000,,2013-08-12 14:52:00,
2013-08-12 09:01:00,56.0,51.0,-100.00,NW,315,2.0,4.0,84,0.00,,,0.01,91.000000,,2013-08-12 15:01:00,
2013-08-12 09:11:00,56.0,51.0,-100.00,NW,315,2.0,4.0,84,0.00,,,0.01,91.000000,,2013-08-12 15:11:00,
2013-08-12 10:01:00,66.0,55.0,-100.00,SW,228,2.0,5.0,67,0.00,,,0.01,299.000000,,2013-08-12 16:01:00,
2013-08-12 10:11:00,66.0,55.0,-100.00,SW,228,2.0,5.0,67,0.00,,,0.01,299.000000,,2013-08-12 16:11:00,
2013-08-12 10:43:00,71.0,52.0,-100.00,South,176,3.0,5.0,51,0.00,,,0.01,492.000000,,2013-08-12 16:43:00,
2013-08-12 10:53:00,71.0,52.0,-100.00,South,176,3.0,5.0,51,0.00,,,0.01,492.000000,,2013-08-12 16:53:00,
2013-08-12 11:01:00,71.0,52.0,-100.00,South,176,3.0,5.0,51,0.00,,,0.01,492.000000,,2013-08-12 17:01:00,
2013-08-12 11:11:00,71.0,52.0,-100.00,South,176,3.0,5.0,51,0.00,,,0.01,492.000000,,2013-08-12 17:11:00,
2013-08-12 11:43:00,74.0,51.0,-100.00,SSE,156,5.0,8.0,44,0.00,,,0.01,674.000000,,2013-08-12 17:43:00,
2013-08-12 11:52:00,74.0,51.0,-100.00,SSE,156,5.0,8.0,44,0.00,,,0.01,674.000000,,2013-08-12 17:52:00,
2013-08-12 12:01:00,74.0,51.0,-100.00,SSE,156,5.0,8.0,44,0.00,,,0.01,674.000000,,2013-08-12 18:01:00,
2013-08-12 12:11:00,74.0,51.0,-100.00,SSE,156,5.0,8.0,44,0.00,,,0.01,674.000000,,2013-08-12 18:11:00,
2013-08-12 12:43:00,77.0,51.0,-100.00,SE,142,4.0,9.0,41,0.00,,,0.01,824.000000,,2013-08-12 18:43:00,
2013-08-12 12:52:00,77.0,51.0,-100.00,SE,142,4.0,9.0,41,0.00,,,0.01,824.000000,,2013-08-12 18:52:00,
2013-08-12 13:01:00,77.0,51.0,-100.00,SE,142,4.0,9.0,41,0.00,,,0.01,824.000000,,2013-08-12 19:01:00,
2013-08-12 13:11:00,77.0,51.0,-100.00,SE,142,4.0,9.0,41,0.00,,,0.01,824.000000,,2013-08-12 19:11:00,
2013-08-12 13:43:00,78.0,47.0,-100.00,SSE,156,4.0,7.0,34,0.00,,,0.01,768.000000,,2013-08-12 19:43:00,
2013-08-12 13:52:00,78.0,47.0,-100.00,SSE,156,4.0,7.0,34,0.00,,,0.01,768.000000,,2013-08-12 19:52:00,
2013-08-12 14:02:00,78.0,47.0,-100.00,SSE,156,4.0,7.0,34,0.00,,,0.01,768.000000,,2013-08-12 20:02:00,
2013-08-12 14:11:00,78.0,47.0,-100.00,SSE,156,4.0,7.0,34,0.00,,,0.01,768.000000,,2013-08-12 20:11:00,
2013-08-12 14:42:00,83.0,48.0,-100.00,South,178,3.0,6.0,30,0.00,,,0.01,679.000000,,2013-08-12 20:42:00,
2013-08-12 14:52:00,83.0,48.0,-100.00,South,178,3.0,6.0,30,0.00,,,0.01,679.000000,,2013-08-12 20:52:00,
2013-08-12 15:01:00,83.0,48.0,-100.00,South,178,3.0,6.0,30,0.00,,,0.01,679.000000,,2013-08-12 21:01:00,
2013-08-12 15:12:00,83.0,48.0,-100.00,South,178,3.0,6.0,30,0.00,,,0.01,679.000000,,2013-08-12 21:12:00,
2013-08-12 15:43:00,84.0,45.0,-100.00,South,184,5.0,9.0,26,0.00,,,0.01,916.000000,,2013-08-12 21:43:00,
2013-08-12 15:52:00,84.0,45.0,-100.00,South,184,5.0,9.0,26,0.00,,,0.01,916.000000,,2013-08-12 21:52:00,
2013-08-12 16:02:00,84.0,45.0,-100.00,South,184,5.0,9.0,26,0.00,,,0.01,916.000000,,2013-08-12 22:02:00,
2013-08-12 16:11:00,84.0,45.0,-100.00,South,184,5.0,9.0,26,0.00,,,0.01,916.000000,,2013-08-12 22:11:00,
2013-08-12 16:53:00,85.0,43.0,-100.00,SSE,167,4.0,8.0,23,0.00,,,0.01,847.000000,,2013-08-12 22:53:00,
2013-08-12 17:02:00,85.0,43.0,-100.00,SSE,167,4.0,8.0,23,0.00,,,0.01,847.000000,,2013-08-12 23:02:00,
2013-08-12 17:11:00,85.0,43.0,-100.00,SSE,167,4.0,8.0,23,0.00,,,0.01,847.000000,,2013-08-12 23:11:00,
2013-08-12 17:43:00,85.0,42.0,-100.00,SSE,159,5.0,9.0,22,0.00,,,0.01,662.000000,,2013-08-12 23:43:00,
2013-08-12 17:53:00,85.0,42.0,-100.00,SSE,159,5.0,9.0,22,0.00,,,0.01,662.000000,,2013-08-12 23:53:00,
2013-08-12 18:02:00,85.0,42.0,-100.00,SSE,159,5.0,9.0,22,0.00,,,0.01,662.000000,,2013-08-13 00:02:00,
2013-08-12 18:12:00,85.0,42.0,-100.00,SSE,159,5.0,9.0,22,0.00,,,0.01,662.000000,,2013-08-13 00:12:00,
2013-08-12 18:53:00,87.0,40.0,-100.00,SSE,159,4.0,7.0,19,0.00,,,0.01,582.000000,,2013-08-13 00:53:00,
2013-08-12 19:03:00,87.0,40.0,-100.00,SSE,159,4.0,7.0,19,0.00,,,0.01,582.000000,,2013-08-13 01:03:00,
2013-08-12 19:13:00,87.0,40.0,-100.00,SSE,159,4.0,7.0,19,0.00,,,0.01,582.000000,,2013-08-13 01:13:00,
2013-08-12 19:42:00,85.0,39.0,-100.00,SSW,195,3.0,7.0,20,0.00,,,0.01,411.000000,,2013-08-13 01:42:00,
2013-08-12 19:55:00,85.0,39.0,-100.00,SSW,195,3.0,7.0,20,0.00,,,0.01,411.000000,,2013-08-13 01:55:00,
2013-08-12 20:02:00,85.0,39.0,-100.00,SSW,195,3.0,7.0,20,0.00,,,0.01,411.000000,,2013-08-13 02:02:00,
2013-08-12 20:11:00,85.0,39.0,-100.00,SSW,195,3.0,7.0,20,0.00,,,0.01,411.000000,,2013-08-13 02:11:00,
2013-08-12 20:43:00,79.0,43.0,-100.00,NNW,345,2.0,6.0,28,0.00,,,0.01,89.000000,,2013-08-13 02:43:00,
2013-08-12 20:52:00,79.0,43.0,-100.00,NNW,345,2.0,6.0,28,0.00,,,0.01,89.000000,,2013-08-13 02:52:00,
2013-08-12 21:02:00,79.0,43.0,-100.00,NNW,345,2.0,6.0,28,0.00,,,0.01,89.000000,,2013-08-13 03:02:00,
2013-08-12 21:11:00,79.0,43.0,-100.00,NNW,345,2.0,6.0,28,0.00,,,0.01,89.000000,,2013-08-13 03:11:00,
2013-08-12 21:54:00,69.0,44.0,-100.00,North,351,3.0,4.0,40,0.00,,,0.01,25.000000,,2013-08-13 03:54:00,
2013-08-12 22:03:00,69.0,44.0,-100.00,North,351,3.0,4.0,40,0.00,,,0.01,25.000000,,2013-08-13 04:03:00,
2013-08-12 22:12:00,69.0,44.0,-100.00,North,351,3.0,4.0,40,0.00,,,0.01,25.000000,,2013-08-13 04:12:00,
2013-08-12 23:12:00,62.0,47.0,-100.00,NNW,330,3.0,4.0,58,0.00,,,0.01,0.000000,,2013-08-13 05:12:00,
2013-08-12 23:52:00,58.0,46.0,-100.00,NW,322,2.0,4.0,64,0.00,,,0.01,0.000000,,2013-08-13 05:52:00,